createdAt,value
2023-04-14T00:01:59.784Z,100719.41
2023-04-14T00:04:28.404Z,100719.28
2023-04-14T00:06:58.773Z,100711.41
2023-04-14T00:09:27.329Z,100718.72
2023-04-14T00:11:57.622Z,100711.00
2023-04-14T00:14:26.030Z,100707.03
2023-04-14T00:16:54.596Z,100713.63
2023-04-14T00:19:23.096Z,100714.41
2023-04-14T00:21:51.603Z,100714.91
2023-04-14T00:24:20.048Z,100717.50
2023-04-14T00:26:48.462Z,100716.38
2023-04-14T00:29:18.321Z,100723.72
2023-04-14T00:31:46.641Z,100722.78
2023-04-14T00:34:15.073Z,100715.34
2023-04-14T00:36:43.600Z,100709.19
2023-04-14T00:39:11.988Z,100711.63
2023-04-14T00:41:40.435Z,100705.72
2023-04-14T00:44:08.815Z,100710.19
2023-04-14T00:46:38.826Z,100684.34
2023-04-14T00:49:07.886Z,100702.69
2023-04-14T00:51:37.264Z,100704.75
2023-04-14T00:54:09.013Z,100702.34
2023-04-14T00:56:37.604Z,100704.91
2023-04-14T00:59:08.324Z,100705.47
2023-04-14T01:01:38.801Z,100704.53
2023-04-14T01:04:08.032Z,100700.94
2023-04-14T01:06:37.804Z,100710.28
2023-04-14T01:09:06.600Z,100713.31
2023-04-14T01:11:46.277Z,100695.34
2023-04-14T01:14:24.348Z,100732.66
2023-04-14T01:16:59.146Z,100732.91
2023-04-14T01:19:43.914Z,100738.47
2023-04-14T01:22:16.107Z,100729.00
2023-04-14T01:25:07.651Z,100727.81
2023-04-14T01:27:45.103Z,100716.25
2023-04-14T01:30:46.877Z,100723.88
2023-04-14T01:33:22.099Z,100728.69
2023-04-14T01:35:58.300Z,100726.16
2023-04-14T01:38:31.059Z,100735.72
2023-04-14T01:41:04.235Z,100734.50
2023-04-14T01:43:35.296Z,100703.59
2023-04-14T01:46:08.995Z,100736.69
2023-04-14T01:48:39.364Z,100737.75
2023-04-14T01:51:09.302Z,100732.13
2023-04-14T01:53:41.588Z,100747.47
2023-04-14T01:56:13.247Z,100735.97
2023-04-14T01:58:43.473Z,100743.00
2023-04-14T02:01:13.627Z,100731.88
2023-04-14T02:03:45.225Z,100738.03
2023-04-14T02:06:14.816Z,100728.63
2023-04-14T02:08:43.510Z,100736.47
2023-04-14T02:11:15.156Z,100732.00
2023-04-14T02:13:45.607Z,100735.00
2023-04-14T02:16:15.463Z,100744.03
2023-04-14T02:18:46.783Z,100738.13
2023-04-14T02:21:17.659Z,100743.31
2023-04-14T02:23:46.766Z,100736.63
2023-04-14T02:26:17.376Z,100746.91
2023-04-14T02:28:51.866Z,100735.78
2023-04-14T02:31:23.905Z,100734.66
2023-04-14T02:33:56.630Z,100732.22
2023-04-14T02:36:32.514Z,100742.94
2023-04-14T02:39:05.927Z,100738.53
2023-04-14T02:41:34.828Z,100736.31
2023-04-14T02:44:08.445Z,100739.56
2023-04-14T02:46:50.431Z,100737.59
2023-04-14T02:49:22.578Z,100725.84
2023-04-14T02:51:53.442Z,100721.22
2023-04-14T02:54:23.349Z,100723.06
2023-04-14T02:56:52.797Z,100719.53
2023-04-14T02:59:27.715Z,100718.56
2023-04-14T03:02:04.770Z,100720.16
2023-04-14T03:04:39.764Z,100656.28
2023-04-14T03:07:15.956Z,100720.41
2023-04-14T03:09:44.866Z,100713.63
2023-04-14T03:12:16.814Z,100708.50
2023-04-14T03:14:45.882Z,100715.47
2023-04-14T03:17:17.720Z,100713.06
2023-04-14T03:19:49.342Z,100717.28
2023-04-14T03:22:19.325Z,100707.16
2023-04-14T03:24:48.415Z,100715.09
2023-04-14T03:27:26.377Z,100710.75
2023-04-14T03:29:59.891Z,100704.00
2023-04-14T03:32:34.380Z,100706.31
2023-04-14T03:35:05.036Z,100705.50
2023-04-14T03:37:37.554Z,100696.38
2023-04-14T03:40:09.304Z,100697.78
2023-04-14T03:42:41.688Z,100691.13
2023-04-14T03:45:11.701Z,100689.72
2023-04-14T03:47:42.084Z,100684.75
2023-04-14T03:50:15.646Z,100690.44
2023-04-14T03:52:45.183Z,100665.78
2023-04-14T03:55:15.176Z,100679.66
2023-04-14T03:57:45.798Z,100697.22
2023-04-14T04:00:16.493Z,100691.41
2023-04-14T04:02:48.675Z,100698.94
2023-04-14T04:05:19.457Z,100691.00
2023-04-14T04:07:48.299Z,100704.22
2023-04-14T04:10:17.662Z,100705.81
2023-04-14T04:12:48.990Z,100699.44
2023-04-14T04:15:18.587Z,100707.91
2023-04-14T04:17:50.504Z,100700.59
2023-04-14T04:20:23.380Z,100699.50
2023-04-14T04:22:54.104Z,100707.13
2023-04-14T04:25:22.560Z,100724.13
2023-04-14T04:28:01.235Z,100706.28
2023-04-14T04:30:32.422Z,100700.34
2023-04-14T04:33:03.881Z,100706.56
2023-04-14T04:35:35.878Z,100706.69
2023-04-14T04:38:06.994Z,100701.34
2023-04-14T04:40:38.884Z,100705.16
2023-04-14T04:43:13.463Z,100710.84
2023-04-14T04:46:00.954Z,100716.50
2023-04-14T04:48:30.695Z,100723.69
2023-04-14T04:51:00.438Z,100723.88
2023-04-14T04:53:28.881Z,100709.63
2023-04-14T04:55:57.501Z,100715.97
2023-04-14T04:58:25.947Z,100704.31
2023-04-14T05:00:54.868Z,100712.09
2023-04-14T05:03:23.392Z,100721.09
2023-04-14T05:05:51.745Z,100715.25
2023-04-14T05:08:21.777Z,100721.69
2023-04-14T05:10:50.219Z,100718.47
2023-04-14T05:13:18.657Z,100721.41
2023-04-14T05:15:47.195Z,100724.78
2023-04-14T05:18:15.675Z,100719.44
2023-04-14T05:20:44.075Z,100723.00
2023-04-14T05:23:13.539Z,100727.72
2023-04-14T05:25:43.402Z,100727.53
2023-04-14T05:28:14.068Z,100725.47
2023-04-14T05:30:42.474Z,100732.06
2023-04-14T05:33:11.879Z,100730.53
2023-04-14T05:35:40.619Z,100733.47
2023-04-14T05:38:09.142Z,100741.78
2023-04-14T05:40:37.698Z,100749.94
2023-04-14T05:43:07.703Z,100739.00
2023-04-14T05:45:36.220Z,100737.75
2023-04-14T05:48:05.049Z,100739.25
2023-04-14T05:50:35.037Z,100733.56
2023-04-14T05:53:03.380Z,100727.88
2023-04-14T05:55:32.575Z,100726.53
2023-04-14T05:58:01.019Z,100723.59
2023-04-14T06:00:31.227Z,100735.75
2023-04-14T06:02:59.848Z,100732.97
2023-04-14T06:05:28.563Z,100736.81
2023-04-14T06:07:57.186Z,100738.84
2023-04-14T06:10:25.537Z,100753.94
2023-04-14T06:12:53.856Z,100758.13
2023-04-14T06:15:22.240Z,100742.94
2023-04-14T06:17:52.373Z,100754.34
2023-04-14T06:20:22.044Z,100752.75
2023-04-14T06:22:50.620Z,100747.59
2023-04-14T06:25:19.063Z,100746.94
2023-04-14T06:27:47.379Z,100735.84
2023-04-14T06:30:17.073Z,100730.00
2023-04-14T06:32:45.729Z,100738.91
2023-04-14T06:35:29.515Z,100726.31
2023-04-14T06:38:00.782Z,100718.34
2023-04-14T06:40:29.233Z,100716.41
2023-04-14T06:42:57.728Z,100712.28
2023-04-14T06:45:26.370Z,100705.69
2023-04-14T06:47:55.003Z,100708.94
2023-04-14T06:50:24.796Z,100706.78
2023-04-14T06:52:53.130Z,100711.63
2023-04-14T06:55:21.884Z,100712.59
2023-04-14T06:57:50.387Z,100716.44
2023-04-14T07:00:19.723Z,100712.94
2023-04-14T07:02:48.329Z,100709.66
2023-04-14T07:05:17.429Z,100717.88
2023-04-14T07:07:47.206Z,100714.00
2023-04-14T07:10:15.724Z,100721.28
2023-04-14T07:12:44.092Z,100713.13
2023-04-14T07:15:14.411Z,100716.06
2023-04-14T07:17:43.855Z,100722.53
2023-04-14T07:20:12.746Z,100715.22
2023-04-14T07:22:41.177Z,100715.25
2023-04-14T07:25:11.539Z,100712.34
2023-04-14T07:27:47.164Z,100723.19
2023-04-14T07:30:21.730Z,100716.25
2023-04-14T07:32:50.074Z,100704.19
2023-04-14T07:35:19.749Z,100701.13
2023-04-14T07:37:48.100Z,100704.03
2023-04-14T07:40:17.889Z,100707.44
2023-04-14T07:42:46.520Z,100707.06
2023-04-14T07:45:14.868Z,100711.09
2023-04-14T07:47:43.312Z,100700.09
2023-04-14T07:50:12.117Z,100701.06
2023-04-14T07:52:40.615Z,100697.44
2023-04-14T07:55:09.167Z,100695.28
2023-04-14T07:57:39.165Z,100684.34
2023-04-14T08:00:09.808Z,100695.47
2023-04-14T08:02:40.970Z,100697.94
2023-04-14T08:05:09.608Z,100693.91
2023-04-14T08:07:38.804Z,100689.38
2023-04-14T08:10:08.034Z,100700.75
2023-04-14T08:12:36.650Z,100702.59
2023-04-14T08:15:07.088Z,100700.09
2023-04-14T08:17:35.515Z,100707.00
2023-04-14T08:20:04.046Z,100693.94
2023-04-14T08:22:32.478Z,100682.00
2023-04-14T08:25:01.002Z,100695.44
2023-04-14T08:27:29.410Z,100692.72
2023-04-14T08:29:57.837Z,100691.72
2023-04-14T08:32:28.591Z,100695.94
2023-04-14T08:35:39.190Z,100691.38
2023-04-14T08:37:45.736Z,100692.41
2023-04-14T08:40:17.012Z,100689.03
2023-04-14T08:42:46.080Z,100694.41
2023-04-14T08:45:14.976Z,100686.34
2023-04-14T08:47:47.312Z,100687.84
2023-04-14T08:50:19.792Z,100693.75
2023-04-14T08:52:50.668Z,100688.03
2023-04-14T08:55:20.673Z,100685.84
2023-04-14T08:57:50.443Z,100681.13
2023-04-14T09:00:20.000Z,100678.91
2023-04-14T09:02:50.653Z,100676.38
2023-04-14T09:05:20.225Z,100645.16
2023-04-14T09:07:49.257Z,100657.88
2023-04-14T09:10:18.713Z,100677.53
2023-04-14T09:12:47.305Z,100671.72
2023-04-14T09:15:17.061Z,100620.72
2023-04-14T09:17:45.753Z,100673.16
2023-04-14T09:20:34.645Z,100657.44
2023-04-14T09:23:05.044Z,100663.06
2023-04-14T09:25:34.454Z,100661.97
2023-04-14T09:28:02.948Z,100649.19
2023-04-14T09:30:32.536Z,100653.19
2023-04-14T09:33:01.261Z,100655.16
2023-04-14T09:35:46.598Z,100659.78
2023-04-14T09:38:15.320Z,100648.41
2023-04-14T09:40:45.165Z,100645.44
2023-04-14T09:43:27.096Z,100635.88
2023-04-14T09:45:56.747Z,100636.16
2023-04-14T09:48:26.100Z,100630.00
2023-04-14T09:51:00.588Z,100624.25
2023-04-14T09:53:31.501Z,100623.97
2023-04-14T09:56:02.812Z,100630.84
2023-04-14T09:58:32.823Z,100628.34
2023-04-14T10:01:01.399Z,100619.59
2023-04-14T10:03:39.584Z,100550.22
2023-04-14T10:06:10.951Z,100611.75
2023-04-14T10:08:41.202Z,100612.41
2023-04-14T10:11:20.145Z,100611.22
2023-04-14T10:13:49.795Z,100583.97
2023-04-14T10:16:18.511Z,100616.47
2023-04-14T10:18:47.853Z,100618.34
2023-04-14T10:21:18.210Z,100604.31
2023-04-14T10:23:47.307Z,100610.47
2023-04-14T10:26:16.062Z,100577.94
2023-04-14T10:28:46.844Z,100596.66
2023-04-14T10:31:20.346Z,100580.75
2023-04-14T10:33:48.933Z,100576.84
2023-04-14T10:36:26.739Z,100570.69
2023-04-14T10:39:02.205Z,100572.19
2023-04-14T10:41:46.071Z,100564.28
2023-04-14T10:44:27.484Z,100556.09
2023-04-14T10:46:56.936Z,100551.78
2023-04-14T10:49:30.469Z,100552.38
2023-04-14T10:52:02.657Z,100539.81
2023-04-14T10:54:50.187Z,100536.44
2023-04-14T10:57:20.196Z,100530.72
2023-04-14T10:59:49.416Z,100529.06
2023-04-14T11:02:30.495Z,100521.00
2023-04-14T11:05:00.595Z,100522.19
2023-04-14T11:07:32.822Z,100520.53
2023-04-14T11:10:22.016Z,100503.06
2023-04-14T11:12:57.520Z,100514.47
2023-04-14T11:15:26.087Z,100507.84
2023-04-14T11:17:55.221Z,100498.06
2023-04-14T11:20:24.376Z,100501.84
2023-04-14T11:22:54.905Z,100496.88
2023-04-14T11:25:24.776Z,100493.50
2023-04-14T11:27:54.093Z,100494.44
2023-04-14T11:30:23.128Z,100488.56
2023-04-14T11:32:53.722Z,100486.63
2023-04-14T11:35:25.537Z,100481.81
2023-04-14T11:37:56.301Z,100472.13
2023-04-14T11:40:26.607Z,100430.53
2023-04-14T11:42:56.578Z,100470.91
2023-04-14T11:45:29.182Z,100464.38
2023-04-14T11:47:59.517Z,100463.09
2023-04-14T11:50:29.044Z,100467.72
2023-04-14T11:52:59.933Z,100462.59
2023-04-14T11:55:29.063Z,100450.66
2023-04-14T11:57:58.246Z,100462.50
2023-04-14T12:00:28.215Z,100457.63
2023-04-14T12:02:57.937Z,100437.84
2023-04-14T12:05:31.267Z,100450.78
2023-04-14T12:08:03.270Z,100453.47
2023-04-14T12:10:32.250Z,100449.53
2023-04-14T12:13:02.152Z,100461.81
2023-04-14T12:15:31.677Z,100454.97
2023-04-14T12:18:00.666Z,100455.75
2023-04-14T12:20:30.486Z,100444.28
2023-04-14T12:23:04.660Z,100433.63
2023-04-14T12:25:34.169Z,100445.53
2023-04-14T12:28:06.547Z,100441.19
2023-04-14T12:30:36.020Z,100428.47
2023-04-14T12:33:11.526Z,100441.78
2023-04-14T12:35:40.763Z,100422.63
2023-04-14T12:38:14.810Z,100436.56
2023-04-14T12:40:46.126Z,100440.94
2023-04-14T12:43:15.249Z,100437.13
2023-04-14T12:45:45.112Z,100429.84
2023-04-14T12:48:14.454Z,100412.13
2023-04-14T12:50:42.921Z,100414.69
2023-04-14T12:53:29.637Z,100427.84
2023-04-14T12:56:08.951Z,100391.16
2023-04-14T12:58:38.060Z,100412.41
2023-04-14T13:01:08.000Z,100407.38
2023-04-14T13:03:46.479Z,100402.59
2023-04-14T13:06:18.097Z,100390.94
2023-04-14T13:08:49.341Z,100397.19
2023-04-14T13:11:19.107Z,100398.47
2023-04-14T13:13:48.565Z,100387.84
2023-04-14T13:16:19.397Z,100385.13
2023-04-14T13:18:49.459Z,100342.59
2023-04-14T13:21:18.019Z,100349.88
2023-04-14T13:23:48.113Z,100358.59
2023-04-14T13:26:16.546Z,100358.84
2023-04-14T13:28:45.216Z,100359.09
2023-04-14T13:31:17.479Z,100356.38
2023-04-14T13:33:46.246Z,100350.97
2023-04-14T13:36:14.692Z,100345.50
2023-04-14T13:38:43.257Z,100348.00
2023-04-14T13:41:15.419Z,100336.75
2023-04-14T13:43:44.054Z,100343.06
2023-04-14T13:46:12.886Z,100331.59
2023-04-14T13:48:41.696Z,100334.72
2023-04-14T13:51:10.065Z,100324.47
2023-04-14T13:53:38.583Z,100321.34
2023-04-14T13:56:07.277Z,100283.63
2023-04-14T13:58:38.579Z,100297.09
2023-04-14T14:01:11.423Z,100256.53
2023-04-14T14:03:41.375Z,100295.50
2023-04-14T14:06:10.084Z,100296.34
2023-04-14T14:08:38.587Z,100278.03
2023-04-14T14:11:07.264Z,100303.03
2023-04-14T14:13:39.852Z,100298.28
2023-04-14T14:16:10.080Z,100304.25
2023-04-14T14:18:38.645Z,100309.03
2023-04-14T14:21:07.385Z,100314.34
2023-04-14T14:23:35.824Z,100312.09
2023-04-14T14:26:04.268Z,100303.78
2023-04-14T14:28:32.772Z,100315.38
2023-04-14T14:31:03.849Z,100301.16
2023-04-14T14:33:34.016Z,100314.41
2023-04-14T14:36:02.854Z,100322.03
2023-04-14T14:38:31.485Z,100297.75
2023-04-14T14:40:59.853Z,100299.91
2023-04-14T14:43:30.286Z,100299.94
2023-04-14T14:45:58.772Z,100296.09
2023-04-14T14:48:28.791Z,100289.78
2023-04-14T14:50:57.157Z,100281.81
2023-04-14T14:53:25.545Z,100262.31
2023-04-14T14:55:53.899Z,100256.00
2023-04-14T14:58:22.695Z,100256.56
2023-04-14T15:00:51.239Z,100256.75
2023-04-14T15:03:20.607Z,100255.44
2023-04-14T15:05:52.881Z,100262.41
2023-04-14T15:08:21.623Z,100262.38
2023-04-14T15:10:52.251Z,100263.75
2023-04-14T15:13:21.150Z,100274.91
2023-04-14T15:15:49.503Z,100281.31
2023-04-14T15:18:17.978Z,100281.03
2023-04-14T15:20:46.334Z,100279.91
2023-04-14T15:23:16.239Z,100255.50
2023-04-14T15:25:44.662Z,100297.47
2023-04-14T15:28:14.459Z,100313.91
2023-04-14T15:30:43.014Z,100298.88
2023-04-14T15:33:11.478Z,100307.31
2023-04-14T15:35:40.569Z,100305.81
2023-04-14T15:38:08.899Z,100304.88
2023-04-14T15:40:39.945Z,100307.94
2023-04-14T15:43:08.552Z,100311.16
2023-04-14T15:45:37.003Z,100307.53
2023-04-14T15:48:05.642Z,100318.16
2023-04-14T15:50:34.066Z,100286.91
2023-04-14T15:53:13.384Z,100254.16
2023-04-14T15:55:44.519Z,100244.47
2023-04-14T15:58:12.944Z,100244.66
2023-04-14T16:00:41.652Z,100229.00
2023-04-14T16:03:12.094Z,100228.63
2023-04-14T16:05:40.949Z,100221.69
2023-04-14T16:08:09.531Z,100223.84
2023-04-14T16:10:40.611Z,100220.78
2023-04-14T16:13:10.658Z,100225.13
2023-04-14T16:15:39.057Z,100226.84
2023-04-14T16:18:07.523Z,100222.75
2023-04-14T16:20:35.983Z,100221.53
2023-04-14T16:23:04.327Z,100222.56
2023-04-14T16:25:32.766Z,100224.88
2023-04-14T16:28:01.166Z,100223.69
2023-04-14T16:30:30.924Z,100224.81
2023-04-14T16:32:59.338Z,100225.47
2023-04-14T16:35:27.709Z,100227.41
2023-04-14T16:37:56.193Z,100230.75
2023-04-14T16:40:24.751Z,100239.91
2023-04-14T16:42:53.218Z,100233.31
2023-04-14T16:45:21.572Z,100231.66
2023-04-14T16:47:51.467Z,100227.66
2023-04-14T16:50:19.898Z,100221.47
2023-04-14T16:52:48.290Z,100226.66
2023-04-14T16:55:17.149Z,100220.63
2023-04-14T16:57:45.591Z,100222.69
2023-04-14T17:00:14.911Z,100213.50
2023-04-14T17:02:43.575Z,100205.50
2023-04-14T17:05:16.223Z,100209.50
2023-04-14T17:07:45.121Z,100205.13
2023-04-14T17:10:14.286Z,100182.84
2023-04-14T17:12:43.373Z,100194.56
2023-04-14T17:15:12.330Z,100185.19
2023-04-14T17:17:40.735Z,100181.94
2023-04-14T17:20:10.637Z,100181.25
2023-04-14T17:22:40.534Z,100182.00
2023-04-14T17:25:10.893Z,100176.97
2023-04-14T17:27:39.397Z,100180.03
2023-04-14T17:30:10.878Z,100184.41
2023-04-14T17:32:41.842Z,100182.91
2023-04-14T17:35:11.462Z,100190.50
2023-04-14T17:37:41.753Z,100173.16
2023-04-14T17:40:11.610Z,100172.16
2023-04-14T17:42:40.053Z,100165.75
2023-04-14T17:45:09.950Z,100144.59
2023-04-14T17:47:39.994Z,100158.59
2023-04-14T17:50:10.346Z,100154.88
2023-04-14T17:52:40.478Z,100146.16
2023-04-14T17:55:10.464Z,100157.69
2023-04-14T17:57:39.348Z,100168.97
2023-04-14T18:00:10.384Z,100196.72
2023-04-14T18:02:41.909Z,100194.69
2023-04-14T18:05:11.432Z,100188.66
2023-04-14T18:07:43.363Z,100137.56
2023-04-14T18:10:12.182Z,100187.94
2023-04-14T18:12:41.507Z,100191.56
2023-04-14T18:15:15.342Z,100177.69
2023-04-14T18:17:43.923Z,100177.50
2023-04-14T18:20:13.856Z,100176.03
2023-04-14T18:22:43.776Z,100176.56
2023-04-14T18:25:12.061Z,100183.66
2023-04-14T18:30:12.924Z,100183.75
2023-04-14T18:32:41.584Z,100191.84
2023-04-14T18:35:10.573Z,100183.09
2023-04-14T18:37:40.064Z,100196.66
2023-04-14T18:40:10.960Z,100199.72
2023-04-14T18:42:39.616Z,100192.38
2023-04-14T18:45:09.119Z,100178.50
2023-04-14T18:47:37.734Z,100188.91
2023-04-14T18:50:07.651Z,100195.63
2023-04-14T18:52:36.076Z,100208.56
2023-04-14T18:55:05.136Z,100205.03
2023-04-14T18:57:35.009Z,100212.91
2023-04-14T19:00:07.169Z,100230.22
2023-04-14T19:02:36.232Z,100227.00
2023-04-14T19:05:04.980Z,100232.53
2023-04-14T19:07:34.499Z,100231.19
2023-04-14T19:10:05.078Z,100240.59
2023-04-14T19:12:34.876Z,100242.44
2023-04-14T19:15:03.736Z,100244.13
2023-04-14T19:17:34.481Z,100247.97
2023-04-14T19:20:03.018Z,100260.53
2023-04-14T19:22:31.532Z,100233.75
2023-04-14T19:24:59.992Z,100278.16
2023-04-14T19:27:28.302Z,100267.91
2023-04-14T19:29:58.263Z,100268.19
2023-04-14T19:32:26.714Z,100271.53
2023-04-14T19:34:55.148Z,100274.06
2023-04-14T19:37:23.553Z,100271.19
2023-04-14T19:39:51.967Z,100280.25
2023-04-14T19:42:20.319Z,100270.72
2023-04-14T19:44:48.735Z,100270.22
2023-04-14T19:47:18.441Z,100274.75
2023-04-14T19:49:47.013Z,100276.97
2023-04-14T19:52:15.465Z,100268.75
2023-04-14T19:54:44.604Z,100274.66
2023-04-14T19:57:13.903Z,100271.81
2023-04-14T19:59:42.619Z,100264.94
2023-04-14T20:02:13.365Z,100257.91
2023-04-14T20:04:45.136Z,100259.75
2023-04-14T20:07:14.675Z,100261.25
2023-04-14T20:09:46.708Z,100262.25
2023-04-14T20:12:15.638Z,100265.66
2023-04-14T20:14:45.151Z,100261.28
2023-04-14T20:17:13.991Z,100268.84
2023-04-14T20:19:44.669Z,100271.69
2023-04-14T20:22:13.561Z,100272.72
2023-04-14T20:24:41.994Z,100278.06
2023-04-14T20:27:11.070Z,100271.03
2023-04-14T20:29:39.380Z,100277.91
2023-04-14T20:32:07.958Z,100279.59
2023-04-14T20:34:36.342Z,100281.44
2023-04-14T20:37:06.220Z,100295.84
2023-04-14T20:39:34.691Z,100282.44
2023-04-14T20:42:03.070Z,100283.44
2023-04-14T20:44:31.721Z,100285.78
2023-04-14T20:47:00.706Z,100281.44
2023-04-14T20:49:29.664Z,100288.81
2023-04-14T20:51:58.556Z,100289.81
2023-04-14T20:54:28.882Z,100290.00
2023-04-14T20:56:57.673Z,100293.84
2023-04-14T20:59:26.374Z,100300.56
2023-04-14T21:01:54.894Z,100296.53
2023-04-14T21:04:24.302Z,100298.22
2023-04-14T21:06:53.205Z,100303.22
2023-04-14T21:09:25.138Z,100304.91
2023-04-14T21:12:15.971Z,100300.56
2023-04-14T21:15:29.090Z,100291.84
2023-04-14T21:17:32.070Z,100292.50
2023-04-14T21:20:00.486Z,100294.84
2023-04-14T21:22:28.869Z,100288.31
2023-04-14T21:24:57.177Z,100292.00
2023-04-14T21:27:28.160Z,100300.88
2023-04-14T21:29:56.618Z,100298.03
2023-04-14T21:32:25.138Z,100296.03
2023-04-14T21:34:53.592Z,100300.22
2023-04-14T21:37:21.954Z,100303.22
2023-04-14T21:39:50.443Z,100308.25
2023-04-14T21:42:18.797Z,100314.13
2023-04-14T21:44:49.394Z,100314.78
2023-04-14T21:47:17.949Z,100295.84
2023-04-14T21:49:46.315Z,100326.66
2023-04-14T21:52:15.842Z,100325.97
2023-04-14T21:54:46.274Z,100325.13
2023-04-14T21:57:14.789Z,100329.66
2023-04-14T21:59:43.182Z,100334.38
2023-04-14T22:02:13.863Z,100336.72
2023-04-14T22:04:42.491Z,100336.88
2023-04-14T22:07:10.977Z,100340.75
2023-04-14T22:09:39.498Z,100326.66
2023-04-14T22:12:07.912Z,100328.03
2023-04-14T22:14:37.175Z,100329.03
2023-04-14T22:17:05.710Z,100329.88
2023-04-14T22:19:35.896Z,100338.09
2023-04-14T22:22:04.828Z,100328.03
2023-04-14T22:24:33.644Z,100335.41
2023-04-14T22:27:02.137Z,100341.47
2023-04-14T22:29:30.480Z,100344.81
2023-04-14T22:31:58.825Z,100336.44
2023-04-14T22:34:27.294Z,100341.78
2023-04-14T22:36:58.128Z,100346.81
2023-04-14T22:39:26.626Z,100348.84
2023-04-14T22:41:54.963Z,100357.72
2023-04-14T22:44:23.461Z,100367.63
2023-04-14T22:46:52.835Z,100359.22
2023-04-14T22:49:21.564Z,100372.66
2023-04-14T22:51:49.907Z,100370.47
2023-04-14T22:54:19.704Z,100370.97
2023-04-14T22:56:48.258Z,100367.78
2023-04-14T22:59:16.947Z,100374.66
2023-04-14T23:01:45.395Z,100372.81
2023-04-14T23:04:13.972Z,100361.25
2023-04-14T23:06:42.495Z,100361.56
2023-04-14T23:09:10.973Z,100370.13
2023-04-14T23:11:40.683Z,100367.25
2023-04-14T23:14:09.024Z,100369.94
2023-04-14T23:16:37.440Z,100365.09
2023-04-14T23:19:06.060Z,100358.56
2023-04-14T23:21:34.793Z,100372.44
2023-04-14T23:24:03.225Z,100376.97
2023-04-14T23:26:32.624Z,100385.56
2023-04-14T23:29:02.778Z,100378.69
2023-04-14T23:31:31.410Z,100372.13
2023-04-14T23:33:59.871Z,100377.34
2023-04-14T23:36:28.325Z,100377.69
2023-04-14T23:38:56.642Z,100276.63
2023-04-14T23:41:25.131Z,100370.63
2023-04-14T23:43:53.490Z,100372.97
2023-04-14T23:46:23.515Z,100378.34
2023-04-14T23:48:53.307Z,100372.34
2023-04-14T23:51:23.111Z,100364.63
2023-04-14T23:53:51.836Z,100365.28
2023-04-14T23:56:20.244Z,100359.09
2023-04-14T23:58:48.730Z,100358.91
